createdAt,value
2022-12-16T00:04:01.300Z,99152.78
2022-12-16T00:09:03.410Z,99150.13
2022-12-16T00:14:05.584Z,99149.28
2022-12-16T00:19:07.501Z,99144.75
2022-12-16T00:24:09.087Z,99139.56
2022-12-16T00:29:11.270Z,99138.22
2022-12-16T00:34:12.802Z,99139.41
2022-12-16T00:39:14.431Z,99141.78
2022-12-16T00:44:15.996Z,99159.31
2022-12-16T00:49:17.618Z,99165.50
2022-12-16T00:54:19.211Z,99183.06
2022-12-16T00:59:20.798Z,99203.66
2022-12-16T01:04:22.386Z,99213.53
2022-12-16T01:09:24.062Z,99208.03
2022-12-16T01:14:25.692Z,99217.72
2022-12-16T01:19:27.238Z,99215.19
2022-12-16T01:24:28.770Z,99219.88
2022-12-16T01:29:30.291Z,99216.53
2022-12-16T01:34:32.423Z,99218.75
2022-12-16T01:39:33.943Z,99208.34
2022-12-16T01:44:35.575Z,99207.69
2022-12-16T01:49:49.052Z,99209.53
2022-12-16T01:54:57.847Z,99210.03
2022-12-16T02:00:01.330Z,99212.00
2022-12-16T02:05:21.142Z,99208.03
2022-12-16T02:10:33.809Z,99224.56
2022-12-16T02:15:46.052Z,99229.94
2022-12-16T02:20:59.398Z,99226.94
2022-12-16T02:26:26.804Z,99239.50
2022-12-16T02:31:56.052Z,99237.78
2022-12-16T02:37:05.702Z,99244.50
2022-12-16T02:42:13.568Z,99251.03
2022-12-16T02:47:15.099Z,99258.22
2022-12-16T02:52:20.575Z,99271.41
2022-12-16T02:57:35.085Z,99284.31
2022-12-16T03:02:52.237Z,99294.03
2022-12-16T03:07:56.856Z,99301.22
2022-12-16T03:13:00.780Z,99311.44
2022-12-16T03:18:06.074Z,99317.97
2022-12-16T03:23:12.768Z,99341.41
2022-12-16T03:28:49.808Z,99352.25
2022-12-16T03:34:00.176Z,99370.03
2022-12-16T03:39:04.388Z,99380.72
2022-12-16T03:44:07.885Z,99397.91
2022-12-16T03:49:09.440Z,99424.38
2022-12-16T03:54:11.020Z,99435.91
2022-12-16T03:59:12.572Z,99463.34
2022-12-16T04:04:14.152Z,99480.88
2022-12-16T04:09:15.708Z,99513.81
2022-12-16T04:14:36.105Z,99534.09
2022-12-16T04:19:56.778Z,99556.66
2022-12-16T04:25:07.107Z,99576.22
2022-12-16T04:30:21.564Z,99585.59
2022-12-16T04:35:41.782Z,99599.44
2022-12-16T04:41:01.907Z,99626.13
2022-12-16T04:46:22.279Z,99640.28
2022-12-16T04:51:42.464Z,99655.44
2022-12-16T04:57:02.485Z,99681.78
2022-12-16T05:02:22.815Z,99704.41
2022-12-16T05:07:42.918Z,99734.44
2022-12-16T05:13:02.768Z,99761.09
2022-12-16T05:18:34.645Z,99777.41
2022-12-16T05:23:54.484Z,99806.59
2022-12-16T05:29:14.628Z,99824.75
2022-12-16T05:34:34.823Z,99819.28
2022-12-16T05:39:54.690Z,99840.56
2022-12-16T05:45:14.910Z,99845.63
2022-12-16T05:50:35.032Z,99848.59
2022-12-16T05:56:02.548Z,99862.69
2022-12-16T06:01:25.512Z,99881.25
2022-12-16T06:06:45.823Z,99901.22
2022-12-16T06:12:05.839Z,99914.13
2022-12-16T06:17:25.944Z,99924.53
2022-12-16T06:22:46.224Z,99925.75
2022-12-16T06:28:09.694Z,99928.81
2022-12-16T06:33:30.128Z,99934.53
2022-12-16T06:38:50.635Z,99945.03
2022-12-16T06:44:10.738Z,99947.94
2022-12-16T06:49:31.048Z,99954.78
2022-12-16T06:54:51.199Z,99952.91
2022-12-16T07:00:22.208Z,99959.75
2022-12-16T07:05:42.120Z,99961.72
2022-12-16T07:11:15.578Z,99974.00
2022-12-16T07:16:36.640Z,99979.81
2022-12-16T07:21:56.718Z,99975.72
2022-12-16T07:27:16.912Z,99975.72
2022-12-16T07:32:37.334Z,99967.00
2022-12-16T07:37:58.161Z,99974.09
2022-12-16T07:43:18.358Z,99960.66
2022-12-16T07:48:38.706Z,99964.66
2022-12-16T07:53:58.973Z,99961.53
2022-12-16T07:59:19.299Z,99960.81
2022-12-16T08:04:39.575Z,99959.13
2022-12-16T08:09:59.920Z,99951.88
2022-12-16T08:15:20.085Z,99963.22
2022-12-16T08:20:40.523Z,99971.34
2022-12-16T08:26:00.818Z,99975.31
2022-12-16T08:31:21.041Z,99972.56
2022-12-16T08:36:41.229Z,99981.91
2022-12-16T08:42:01.570Z,99976.16
2022-12-16T08:47:21.682Z,99980.13
2022-12-16T08:52:42.051Z,99976.50
2022-12-16T08:58:02.259Z,99964.69
2022-12-16T09:03:23.260Z,99970.13
2022-12-16T09:08:56.670Z,99976.28
2022-12-16T09:14:23.762Z,99985.56
2022-12-16T09:19:43.987Z,99994.13
2022-12-16T09:25:04.225Z,100004.59
2022-12-16T09:30:24.943Z,100007.16
2022-12-16T09:35:45.193Z,100027.13
2022-12-16T09:41:05.441Z,100039.41
2022-12-16T09:46:55.016Z,100064.56
2022-12-16T09:52:19.743Z,100113.66
2022-12-16T09:57:41.893Z,100154.25
2022-12-16T10:03:07.527Z,100177.31
2022-12-16T10:09:03.001Z,100209.28
2022-12-16T10:14:30.809Z,100212.81
2022-12-16T10:20:10.024Z,100232.72
2022-12-16T10:25:37.959Z,100256.34
2022-12-16T10:30:58.345Z,100288.66
2022-12-16T10:36:19.244Z,100340.50
2022-12-16T10:41:43.691Z,100413.13
2022-12-16T10:47:03.938Z,100465.03
2022-12-16T10:52:24.633Z,100487.44
2022-12-16T10:58:02.868Z,100509.69
2022-12-16T11:03:45.207Z,100506.53
2022-12-16T11:09:05.581Z,100497.91
2022-12-16T11:15:12.546Z,100477.19
2022-12-16T11:20:44.629Z,100450.59
2022-12-16T11:26:04.890Z,100441.69
2022-12-16T11:31:33.791Z,100446.41
2022-12-16T11:36:56.617Z,100465.66
2022-12-16T11:42:18.302Z,100463.91
2022-12-16T11:48:01.609Z,100468.59
2022-12-16T11:53:32.665Z,100485.97
2022-12-16T11:58:53.444Z,100501.53
2022-12-16T12:04:17.540Z,100526.66
2022-12-16T12:09:44.579Z,100530.91
2022-12-16T12:15:16.084Z,100521.34
2022-12-16T12:20:48.464Z,100490.31
2022-12-16T12:26:12.700Z,100524.44
2022-12-16T12:31:43.852Z,100557.84
2022-12-16T12:37:18.461Z,100562.53
2022-12-16T12:42:49.280Z,100403.75
2022-12-16T12:48:33.174Z,100321.03
2022-12-16T12:54:15.149Z,100239.69
2022-12-16T12:59:43.471Z,100174.84
2022-12-16T13:05:07.418Z,100172.00
2022-12-16T13:10:39.829Z,100148.38
2022-12-16T13:16:00.493Z,100165.38
2022-12-16T13:21:20.529Z,100155.13
2022-12-16T13:26:43.328Z,100145.34
2022-12-16T13:32:20.392Z,100136.25
2022-12-16T13:37:44.106Z,100147.69
2022-12-16T13:43:04.348Z,100144.03
2022-12-16T13:48:46.255Z,100144.09
2022-12-16T13:54:10.679Z,100134.66
2022-12-16T13:59:46.689Z,100142.41
2022-12-16T14:05:11.358Z,100148.00
2022-12-16T14:10:43.877Z,100140.34
2022-12-16T14:16:07.514Z,100137.28
2022-12-16T14:21:34.274Z,100143.56
2022-12-16T14:26:56.057Z,100156.34
2022-12-16T14:32:16.347Z,100168.25
2022-12-16T14:37:36.617Z,100157.00
2022-12-16T14:42:59.811Z,100150.56
2022-12-16T14:48:19.962Z,100146.25
2022-12-16T14:53:42.760Z,100147.69
2022-12-16T14:59:02.904Z,100134.28
2022-12-16T15:04:28.006Z,100150.34
2022-12-16T15:09:52.958Z,100149.56
2022-12-16T15:15:16.901Z,100159.31
2022-12-16T15:20:49.212Z,100167.53
2022-12-16T15:26:14.777Z,100182.81
2022-12-16T15:31:44.127Z,100183.34
2022-12-16T15:37:04.659Z,100197.63
2022-12-16T15:42:45.888Z,100212.13
2022-12-16T15:48:08.951Z,100225.09
2022-12-16T15:53:47.135Z,100226.69
2022-12-16T15:59:07.501Z,100225.84
2022-12-16T16:04:39.481Z,100242.13
2022-12-16T16:09:59.839Z,100245.25
2022-12-16T16:15:20.399Z,100263.44
2022-12-16T16:20:41.005Z,100273.22
2022-12-16T16:26:03.986Z,100276.41
2022-12-16T16:31:26.559Z,100278.19
2022-12-16T16:36:47.013Z,100281.50
2022-12-16T16:42:07.393Z,100288.72
2022-12-16T16:47:35.153Z,100293.00
2022-12-16T16:52:55.601Z,100302.44
2022-12-16T16:58:16.210Z,100310.28
2022-12-16T17:03:37.010Z,100316.22
2022-12-16T17:08:57.877Z,100312.34
2022-12-16T17:14:18.054Z,100329.66
2022-12-16T17:19:37.943Z,100337.72
2022-12-16T17:24:58.245Z,100336.84
2022-12-16T17:30:18.971Z,100345.13
2022-12-16T17:35:39.089Z,100337.84
2022-12-16T17:40:59.273Z,100350.44
2022-12-16T17:46:25.914Z,100362.78
2022-12-16T17:51:46.497Z,100375.06
2022-12-16T17:57:06.562Z,100378.28
2022-12-16T18:02:31.676Z,100376.28
2022-12-16T18:07:52.549Z,100388.00
2022-12-16T18:13:14.933Z,100386.69
2022-12-16T18:18:35.305Z,100390.38
2022-12-16T18:23:56.958Z,100402.41
2022-12-16T18:29:17.337Z,100406.13
2022-12-16T18:34:37.660Z,100409.59
2022-12-16T18:39:57.958Z,100421.16
2022-12-16T18:45:18.171Z,100422.47
2022-12-16T18:50:38.769Z,100433.94
2022-12-16T18:55:58.935Z,100435.25
2022-12-16T19:01:20.321Z,100441.97
2022-12-16T19:06:54.583Z,100456.00
2022-12-16T19:12:14.625Z,100459.81
2022-12-16T19:17:34.818Z,100467.84
2022-12-16T19:22:55.083Z,100470.53
2022-12-16T19:28:16.287Z,100479.94
2022-12-16T19:33:36.524Z,100482.59
2022-12-16T19:38:56.781Z,100486.28
2022-12-16T19:44:17.204Z,100485.25
2022-12-16T19:49:44.393Z,100489.63
2022-12-16T19:55:04.985Z,100492.97
2022-12-16T20:00:25.807Z,100507.84
2022-12-16T20:05:46.100Z,100524.41
2022-12-16T20:11:06.300Z,100519.69
2022-12-16T20:16:30.008Z,100524.09
2022-12-16T20:21:52.506Z,100531.91
2022-12-16T20:27:16.618Z,100538.63
2022-12-16T20:32:40.172Z,100539.63
2022-12-16T20:38:00.429Z,100539.66
2022-12-16T20:43:20.790Z,100546.63
2022-12-16T20:48:40.963Z,100551.28
2022-12-16T20:54:01.264Z,100555.88
2022-12-16T20:59:21.529Z,100557.97
2022-12-16T21:04:41.864Z,100578.22
2022-12-16T21:10:01.885Z,100571.19
2022-12-16T21:15:22.342Z,100591.38
2022-12-16T21:20:42.592Z,100587.09
2022-12-16T21:26:02.963Z,100596.63
2022-12-16T21:31:23.155Z,100593.09
2022-12-16T21:36:43.681Z,100598.69
2022-12-16T21:42:03.989Z,100609.41
2022-12-16T21:47:24.275Z,100624.22
2022-12-16T21:52:44.480Z,100637.28
2022-12-16T21:58:04.819Z,100648.72
2022-12-16T22:03:25.165Z,100658.28
2022-12-16T22:08:45.733Z,100673.31
2022-12-16T22:14:05.981Z,100667.34
2022-12-16T22:19:26.817Z,100669.19
2022-12-16T22:24:48.551Z,100679.41
2022-12-16T22:30:25.689Z,100688.69
2022-12-16T22:35:45.609Z,100690.59
2022-12-16T22:41:16.522Z,100700.50
2022-12-16T22:46:36.708Z,100702.31
2022-12-16T22:51:56.940Z,100711.47
2022-12-16T22:57:17.322Z,100712.06
2022-12-16T23:02:37.706Z,100713.34
2022-12-16T23:07:57.899Z,100719.69
2022-12-16T23:13:18.307Z,100719.25
2022-12-16T23:18:38.516Z,100721.69
2022-12-16T23:23:58.930Z,100727.31
2022-12-16T23:29:20.379Z,100736.88
2022-12-16T23:34:45.459Z,100739.59
2022-12-16T23:40:06.281Z,100739.94
2022-12-16T23:45:27.007Z,100750.59
2022-12-16T23:50:46.979Z,100755.00
2022-12-16T23:56:17.028Z,100766.91
